createdAt,value
2018-07-14T00:01:30.075Z,98.30
2018-07-14T00:03:58.654Z,98.20
2018-07-14T00:06:27.100Z,98.10
2018-07-14T00:08:55.593Z,98.20
2018-07-14T00:11:24.019Z,98.30
2018-07-14T00:13:52.449Z,98.20
2018-07-14T00:16:20.917Z,98.30
2018-07-14T00:18:49.459Z,98.30
2018-07-14T00:21:18.009Z,98.40
2018-07-14T00:23:46.551Z,98.30
2018-07-14T00:26:18.033Z,98.50
2018-07-14T00:28:47.218Z,98.70
2018-07-14T00:31:15.910Z,98.80
2018-07-14T00:33:44.334Z,99.20
2018-07-14T00:36:12.877Z,99.00
2018-07-14T00:38:41.447Z,99.20
2018-07-14T00:41:09.863Z,99.00
2018-07-14T00:43:38.374Z,99.20
2018-07-14T00:46:08.178Z,99.10
2018-07-14T00:48:36.566Z,99.10
2018-07-14T00:51:05.047Z,99.20
2018-07-14T00:53:33.435Z,99.40
2018-07-14T00:56:01.922Z,99.70
2018-07-14T00:58:30.409Z,99.60
2018-07-14T01:00:58.891Z,99.70
2018-07-14T01:03:27.338Z,99.70
2018-07-14T01:05:55.838Z,99.90
2018-07-14T01:08:24.345Z,99.70
2018-07-14T01:10:52.800Z,99.40
2018-07-14T01:13:21.267Z,99.40
2018-07-14T01:15:49.874Z,99.40
2018-07-14T01:18:18.294Z,99.30
2018-07-14T01:20:46.811Z,99.40
2018-07-14T01:23:15.306Z,99.20
2018-07-14T01:25:44.115Z,99.10
2018-07-14T01:28:12.895Z,99.30
2018-07-14T01:30:41.447Z,99.40
2018-07-14T01:33:09.945Z,99.60
2018-07-14T01:35:38.427Z,99.70
2018-07-14T01:38:06.924Z,99.70
2018-07-14T01:40:35.434Z,99.70
2018-07-14T01:43:03.929Z,99.60
2018-07-14T01:45:32.331Z,99.70
2018-07-14T01:48:00.891Z,99.90
2018-07-14T01:50:29.399Z,99.90
2018-07-14T01:52:57.982Z,99.90
2018-07-14T01:55:26.446Z,99.90
2018-07-14T01:57:54.898Z,99.90
2018-07-14T02:00:23.431Z,99.90
2018-07-14T02:02:52.012Z,99.90
2018-07-14T02:05:20.524Z,99.90
2018-07-14T02:07:49.019Z,99.90
2018-07-14T02:10:17.503Z,99.90
2018-07-14T02:12:46.315Z,99.90
2018-07-14T02:15:14.803Z,99.90
2018-07-14T02:17:43.276Z,99.90
2018-07-14T02:20:11.786Z,99.90
2018-07-14T02:22:40.346Z,99.90
2018-07-14T02:25:08.888Z,99.90
2018-07-14T02:27:37.340Z,99.90
2018-07-14T02:30:05.830Z,99.90
2018-07-14T02:32:34.233Z,99.90
2018-07-14T02:35:02.866Z,99.90
2018-07-14T02:37:31.287Z,99.90
2018-07-14T02:39:59.675Z,99.90
2018-07-14T02:42:28.132Z,99.90
2018-07-14T02:44:56.627Z,99.90
2018-07-14T02:47:25.048Z,99.90
2018-07-14T02:49:53.428Z,99.90
2018-07-14T02:52:21.977Z,99.90
2018-07-14T02:54:50.501Z,99.90
2018-07-14T02:57:19.007Z,99.90
2018-07-14T02:59:47.428Z,99.90
2018-07-14T03:02:15.950Z,99.90
2018-07-14T03:04:44.339Z,99.90
2018-07-14T03:07:12.871Z,99.90
2018-07-14T03:09:41.254Z,99.90
2018-07-14T03:12:09.691Z,99.90
2018-07-14T03:14:38.079Z,99.90
2018-07-14T03:17:06.545Z,99.90
2018-07-14T03:19:35.400Z,99.90
2018-07-14T03:22:03.709Z,99.90
2018-07-14T03:27:00.511Z,99.90
2018-07-14T03:29:29.096Z,99.90
2018-07-14T03:31:57.542Z,99.90
2018-07-14T03:34:26.063Z,99.90
2018-07-14T03:36:54.611Z,99.90
2018-07-14T03:39:23.015Z,99.90
2018-07-14T03:41:51.495Z,99.90
2018-07-14T03:44:20.016Z,99.90
2018-07-14T03:46:48.555Z,99.90
2018-07-14T03:49:17.025Z,99.90
2018-07-14T03:51:45.566Z,99.90
2018-07-14T03:54:14.020Z,99.90
2018-07-14T03:56:42.560Z,99.90
2018-07-14T03:59:11.034Z,99.90
2018-07-14T04:01:39.543Z,99.90
2018-07-14T04:04:08.108Z,99.90
2018-07-14T04:06:38.257Z,99.90
2018-07-14T04:09:07.135Z,99.90
2018-07-14T04:11:35.515Z,99.90
2018-07-14T04:14:04.206Z,99.90
2018-07-14T04:16:34.038Z,99.90
2018-07-14T04:19:02.561Z,99.90
2018-07-14T04:21:31.063Z,99.90
2018-07-14T04:23:59.528Z,99.90
2018-07-14T04:26:27.929Z,99.90
2018-07-14T04:28:56.398Z,99.90
2018-07-14T04:31:24.834Z,99.90
2018-07-14T04:33:53.261Z,99.90
2018-07-14T04:36:21.618Z,99.90
2018-07-14T04:38:50.011Z,99.90
2018-07-14T04:41:18.404Z,99.90
2018-07-14T04:43:46.955Z,99.90
2018-07-14T04:46:15.346Z,99.90
2018-07-14T04:48:43.906Z,99.90
2018-07-14T04:51:12.359Z,99.90
2018-07-14T04:53:40.884Z,99.90
2018-07-14T04:56:09.359Z,99.90
2018-07-14T04:58:38.576Z,99.90
2018-07-14T05:01:07.023Z,99.90
2018-07-14T05:03:35.518Z,99.90
2018-07-14T05:06:04.015Z,99.90
2018-07-14T05:08:32.422Z,99.90
2018-07-14T05:11:00.943Z,99.90
2018-07-14T05:13:29.330Z,99.90
2018-07-14T05:15:57.842Z,99.90
2018-07-14T05:18:26.255Z,99.90
2018-07-14T05:20:54.785Z,99.90
2018-07-14T05:23:23.351Z,99.90
2018-07-14T05:25:51.817Z,99.90
2018-07-14T05:28:20.243Z,99.90
2018-07-14T05:30:48.685Z,99.90
2018-07-14T05:33:17.151Z,99.90
2018-07-14T05:35:45.614Z,99.50
2018-07-14T05:38:14.056Z,99.40
2018-07-14T05:40:42.658Z,99.00
2018-07-14T05:43:11.156Z,98.20
2018-07-14T05:45:39.711Z,97.90
2018-07-14T05:48:08.114Z,97.60
2018-07-14T05:50:36.568Z,97.50
2018-07-14T05:53:05.265Z,97.20
2018-07-14T05:55:33.858Z,97.40
2018-07-14T06:00:30.709Z,96.00
2018-07-14T06:02:59.323Z,96.00
2018-07-14T06:05:27.902Z,95.40
2018-07-14T06:07:56.423Z,94.60
2018-07-14T06:10:24.877Z,94.50
2018-07-14T06:12:53.512Z,93.80
2018-07-14T06:15:21.942Z,93.70
2018-07-14T06:17:50.632Z,93.30
2018-07-14T06:20:19.107Z,93.40
2018-07-14T06:22:47.534Z,93.00
2018-07-14T06:25:16.080Z,92.40
2018-07-14T06:27:44.520Z,92.20
2018-07-14T06:30:13.011Z,92.30
2018-07-14T06:32:41.439Z,91.70
2018-07-14T06:35:10.179Z,91.30
2018-07-14T06:37:38.642Z,91.30
2018-07-14T06:40:07.212Z,90.80
2018-07-14T06:42:35.808Z,90.70
2018-07-14T06:45:04.524Z,90.20
2018-07-14T06:47:33.112Z,90.10
2018-07-14T06:50:01.540Z,89.10
2018-07-14T06:52:33.118Z,88.00
2018-07-14T06:55:01.617Z,86.90
2018-07-14T06:57:30.113Z,86.30
2018-07-14T07:00:00.070Z,86.20
2018-07-14T07:02:28.791Z,85.60
2018-07-14T07:04:57.389Z,84.20
2018-07-14T07:07:26.026Z,82.70
2018-07-14T07:09:54.530Z,83.00
2018-07-14T07:12:23.003Z,83.00
2018-07-14T07:14:52.653Z,82.50
2018-07-14T07:17:21.117Z,81.60
2018-07-14T07:19:49.559Z,81.10
2018-07-14T07:22:18.038Z,80.00
2018-07-14T07:24:46.536Z,78.10
2018-07-14T07:27:15.095Z,76.80
2018-07-14T07:29:43.727Z,76.60
2018-07-14T07:32:12.212Z,75.50
2018-07-14T07:34:40.788Z,75.10
2018-07-14T07:37:09.301Z,74.30
2018-07-14T07:39:37.869Z,73.00
2018-07-14T07:44:34.563Z,72.20
2018-07-14T07:47:03.096Z,71.20
2018-07-14T07:52:02.937Z,69.10
2018-07-14T07:54:31.762Z,68.80
2018-07-14T07:57:00.199Z,68.30
2018-07-14T07:59:28.680Z,66.90
2018-07-14T08:01:57.236Z,66.50
2018-07-14T08:04:25.788Z,66.30
2018-07-14T08:06:54.617Z,66.60
2018-07-14T08:09:23.161Z,66.10
2018-07-14T08:11:51.964Z,64.70
2018-07-14T08:14:20.538Z,64.70
2018-07-14T08:16:49.532Z,64.00
2018-07-14T08:19:18.254Z,63.10
2018-07-14T08:21:46.903Z,62.50
2018-07-14T08:24:15.346Z,62.20
2018-07-14T08:26:43.843Z,62.40
2018-07-14T08:29:12.323Z,60.60
2018-07-14T08:31:41.136Z,59.10
2018-07-14T08:34:09.645Z,59.70
2018-07-14T08:39:07.144Z,56.00
2018-07-14T08:41:35.592Z,56.30
2018-07-14T08:44:04.098Z,56.30
2018-07-14T08:46:35.789Z,55.30
2018-07-14T08:49:04.227Z,54.30
2018-07-14T08:51:32.783Z,55.50
2018-07-14T08:54:01.163Z,54.30
2018-07-14T08:56:29.645Z,53.80
2018-07-14T08:58:58.203Z,52.20
2018-07-14T09:01:26.802Z,52.60
2018-07-14T09:03:55.384Z,51.80
2018-07-14T09:06:23.885Z,51.90
2018-07-14T09:08:52.323Z,52.00
2018-07-14T09:11:20.803Z,51.50
2018-07-14T09:13:49.407Z,51.80
2018-07-14T09:16:17.982Z,50.40
2018-07-14T09:18:46.612Z,51.90
2018-07-14T09:21:15.075Z,49.50
2018-07-14T09:23:43.701Z,50.10
2018-07-14T09:26:12.256Z,49.30
2018-07-14T09:28:40.647Z,49.90
2018-07-14T09:31:09.267Z,48.40
2018-07-14T09:33:37.874Z,48.30
2018-07-14T09:36:06.311Z,49.10
2018-07-14T09:38:34.776Z,50.80
2018-07-14T09:41:03.352Z,49.70
2018-07-14T09:43:32.080Z,49.50
2018-07-14T09:46:00.543Z,48.70
2018-07-14T09:48:28.979Z,47.70
2018-07-14T09:50:57.495Z,52.30
2018-07-14T09:53:25.951Z,52.80
2018-07-14T09:55:54.431Z,53.40
2018-07-14T09:58:23.002Z,52.40
2018-07-14T10:00:56.755Z,52.90
2018-07-14T10:03:25.440Z,52.70
2018-07-14T10:05:53.851Z,52.60
2018-07-14T10:08:22.470Z,52.80
2018-07-14T10:10:50.947Z,53.40
2018-07-14T10:13:19.499Z,56.30
2018-07-14T10:15:47.880Z,57.50
2018-07-14T10:18:16.417Z,58.50
2018-07-14T10:20:44.969Z,58.30
2018-07-14T10:23:13.470Z,59.30
2018-07-14T10:25:42.057Z,60.50
2018-07-14T10:28:10.336Z,59.90
2018-07-14T10:30:38.771Z,59.00
2018-07-14T10:33:07.352Z,59.80
2018-07-14T10:35:35.838Z,59.90
2018-07-14T10:38:04.453Z,61.40
2018-07-14T10:40:34.039Z,58.80
2018-07-14T10:43:02.485Z,57.60
2018-07-14T10:45:30.942Z,56.30
2018-07-14T10:47:59.363Z,53.80
2018-07-14T10:50:27.876Z,53.60
2018-07-14T10:52:56.387Z,52.70
2018-07-14T10:55:24.883Z,51.50
2018-07-14T10:57:53.308Z,52.30
2018-07-14T11:00:25.029Z,51.70
2018-07-14T11:02:53.514Z,50.50
2018-07-14T11:05:22.055Z,50.60
2018-07-14T11:07:50.688Z,50.70
2018-07-14T11:10:19.237Z,48.70
2018-07-14T11:12:47.688Z,50.40
2018-07-14T11:15:16.381Z,47.90
2018-07-14T11:17:44.908Z,48.30
2018-07-14T11:20:13.414Z,47.30
2018-07-14T11:22:41.856Z,47.50
2018-07-14T11:25:10.378Z,48.70
2018-07-14T11:27:38.902Z,49.40
2018-07-14T11:30:07.625Z,50.70
2018-07-14T11:32:36.076Z,51.80
2018-07-14T11:35:04.648Z,51.90
2018-07-14T11:37:33.170Z,52.10
2018-07-14T11:40:01.581Z,53.20
2018-07-14T11:44:58.390Z,56.60
2018-07-14T11:47:28.489Z,56.10
2018-07-14T11:49:57.124Z,55.50
2018-07-14T11:52:25.660Z,54.30
2018-07-14T11:54:54.084Z,53.30
2018-07-14T11:57:22.542Z,52.80
2018-07-14T11:59:51.233Z,52.70
2018-07-14T12:02:19.755Z,53.30
2018-07-14T12:04:48.331Z,52.20
2018-07-14T12:07:16.825Z,51.70
2018-07-14T12:09:45.322Z,46.90
2018-07-14T12:12:13.912Z,45.70
2018-07-14T12:14:42.646Z,45.00
2018-07-14T12:17:11.174Z,47.30
2018-07-14T12:19:39.618Z,45.50
2018-07-14T12:22:08.291Z,46.60
2018-07-14T12:24:36.831Z,47.90
2018-07-14T12:27:05.496Z,43.70
2018-07-14T12:29:34.030Z,45.20
2018-07-14T12:32:02.495Z,44.40
2018-07-14T12:34:31.333Z,44.70
2018-07-14T12:36:59.759Z,46.00
2018-07-14T12:39:28.200Z,47.40
2018-07-14T12:41:56.782Z,49.30
2018-07-14T12:44:25.215Z,50.90
2018-07-14T12:46:53.760Z,50.70
2018-07-14T12:49:22.182Z,50.60
2018-07-14T12:51:50.800Z,51.00
2018-07-14T12:54:19.231Z,51.20
2018-07-14T12:56:47.727Z,51.90
2018-07-14T12:59:16.235Z,50.20
2018-07-14T13:01:44.687Z,50.00
2018-07-14T13:04:13.214Z,50.10
2018-07-14T13:06:41.917Z,49.50
2018-07-14T13:09:10.401Z,48.60
2018-07-14T13:11:39.000Z,47.10
2018-07-14T13:14:07.628Z,46.10
2018-07-14T13:16:36.188Z,44.90
2018-07-14T13:19:04.608Z,46.30
2018-07-14T13:21:33.036Z,43.50
2018-07-14T13:24:01.604Z,44.00
2018-07-14T13:26:30.032Z,42.80
2018-07-14T13:28:58.654Z,42.60
2018-07-14T13:31:27.102Z,38.20
2018-07-14T13:33:55.605Z,38.50
2018-07-14T13:36:24.141Z,37.50
2018-07-14T13:38:52.510Z,38.60
2018-07-14T13:41:20.952Z,40.10
2018-07-14T13:43:49.508Z,38.60
2018-07-14T13:46:18.053Z,38.40
2018-07-14T13:48:46.552Z,38.40
2018-07-14T13:51:16.392Z,37.70
2018-07-14T13:53:44.872Z,41.40
2018-07-14T13:56:13.394Z,42.00
2018-07-14T13:58:41.832Z,43.50
2018-07-14T14:01:10.438Z,44.40
2018-07-14T14:03:38.994Z,45.10
2018-07-14T14:06:07.443Z,44.80
2018-07-14T14:08:35.885Z,45.80
2018-07-14T14:11:04.403Z,46.20
2018-07-14T14:13:32.859Z,45.30
2018-07-14T14:16:01.370Z,46.10
2018-07-14T14:18:29.968Z,43.20
2018-07-14T14:20:58.388Z,43.00
2018-07-14T14:23:26.939Z,40.50
2018-07-14T14:25:55.415Z,38.70
2018-07-14T14:28:24.103Z,39.40
2018-07-14T14:30:52.513Z,38.00
2018-07-14T14:33:20.968Z,37.90
2018-07-14T14:35:49.414Z,37.50
2018-07-14T14:38:17.983Z,36.90
2018-07-14T14:40:46.568Z,37.20
2018-07-14T14:43:15.059Z,37.80
2018-07-14T14:45:43.558Z,35.50
2018-07-14T14:48:12.098Z,35.60
2018-07-14T14:50:40.589Z,37.10
2018-07-14T14:53:09.137Z,34.90
2018-07-14T14:55:37.987Z,35.40
2018-07-14T14:58:06.873Z,37.70
2018-07-14T15:00:35.519Z,38.00
2018-07-14T15:03:04.100Z,37.80
2018-07-14T15:05:32.537Z,37.80
2018-07-14T15:08:00.941Z,36.00
2018-07-14T15:15:25.868Z,39.60
2018-07-14T15:17:54.310Z,39.00
2018-07-14T15:20:22.759Z,37.60
2018-07-14T15:22:53.159Z,35.20
2018-07-14T15:25:21.771Z,36.20
2018-07-14T15:27:50.213Z,32.90
2018-07-14T15:30:18.619Z,30.80
2018-07-14T15:32:47.176Z,31.60
2018-07-14T15:35:16.473Z,29.40
2018-07-14T15:37:44.973Z,30.20
2018-07-14T15:40:13.677Z,27.10
2018-07-14T15:42:42.585Z,25.60
2018-07-14T15:45:11.222Z,24.40
2018-07-14T15:47:39.759Z,25.50
2018-07-14T15:50:08.426Z,26.80
2018-07-14T15:52:37.057Z,26.90
2018-07-14T15:55:05.910Z,28.70
2018-07-14T15:57:34.374Z,30.40
2018-07-14T16:00:02.902Z,32.70
2018-07-14T16:02:31.427Z,33.80
2018-07-14T16:05:00.037Z,34.10
2018-07-14T16:07:28.582Z,33.90
2018-07-14T16:09:57.072Z,34.30
2018-07-14T16:12:25.645Z,35.10
2018-07-14T16:14:54.187Z,33.00
2018-07-14T16:17:22.652Z,31.80
2018-07-14T16:19:51.198Z,32.00
2018-07-14T16:22:19.627Z,32.00
2018-07-14T16:24:48.166Z,30.90
2018-07-14T16:27:16.676Z,31.60
2018-07-14T16:29:45.115Z,33.30
2018-07-14T16:32:13.696Z,34.70
2018-07-14T16:34:42.268Z,35.40
2018-07-14T16:37:10.734Z,36.40
2018-07-14T16:39:39.234Z,36.10
2018-07-14T16:42:07.930Z,35.20
2018-07-14T16:44:36.417Z,33.50
2018-07-14T16:47:04.979Z,32.20
2018-07-14T16:49:33.633Z,30.90
2018-07-14T16:52:02.262Z,29.70
2018-07-14T16:54:32.063Z,28.30
2018-07-14T16:57:00.803Z,28.10
2018-07-14T16:59:29.486Z,27.60
2018-07-14T17:01:58.007Z,26.30
2018-07-14T17:04:26.508Z,28.70
2018-07-14T17:06:54.968Z,28.70
2018-07-14T17:09:23.376Z,29.90
2018-07-14T17:11:51.792Z,30.50
2018-07-14T17:14:20.246Z,29.90
2018-07-14T17:16:48.720Z,29.30
2018-07-14T17:19:17.216Z,27.80
2018-07-14T17:21:45.854Z,27.20
2018-07-14T17:24:14.315Z,27.90
2018-07-14T17:26:42.759Z,28.40
2018-07-14T17:29:11.242Z,28.50
2018-07-14T17:31:39.851Z,30.00
2018-07-14T17:34:08.359Z,31.90
2018-07-14T17:36:36.794Z,32.40
2018-07-14T17:39:07.159Z,31.00
2018-07-14T17:41:35.611Z,31.50
2018-07-14T17:44:04.223Z,33.20
2018-07-14T17:46:32.711Z,31.70
2018-07-14T17:49:01.315Z,32.90
2018-07-14T17:51:29.966Z,33.20
2018-07-14T17:53:58.444Z,34.20
2018-07-14T17:56:26.929Z,35.40
2018-07-14T17:58:55.568Z,38.20
2018-07-14T18:01:24.076Z,40.90
2018-07-14T18:03:52.797Z,44.40
2018-07-14T18:06:21.267Z,46.30
2018-07-14T18:08:49.761Z,48.90
2018-07-14T18:11:18.325Z,50.70
2018-07-14T18:13:46.797Z,52.30
2018-07-14T18:16:15.287Z,54.00
2018-07-14T18:18:43.868Z,55.60
2018-07-14T18:21:12.422Z,56.00
2018-07-14T18:23:40.860Z,57.20
2018-07-14T18:26:09.379Z,57.70
2018-07-14T18:28:38.870Z,58.70
2018-07-14T18:31:07.469Z,59.10
2018-07-14T18:33:36.083Z,59.60
2018-07-14T18:36:04.607Z,60.50
2018-07-14T18:38:33.047Z,61.10
2018-07-14T18:41:01.614Z,62.10
2018-07-14T18:43:30.093Z,63.50
2018-07-14T18:45:58.571Z,65.60
2018-07-14T18:48:27.104Z,66.30
2018-07-14T18:50:55.634Z,66.70
2018-07-14T18:53:24.243Z,68.50
2018-07-14T18:58:21.272Z,69.30
2018-07-14T19:00:51.579Z,70.20
2018-07-14T19:03:20.088Z,70.40
2018-07-14T19:05:48.699Z,71.10
2018-07-14T19:08:17.150Z,72.10
2018-07-14T19:10:45.677Z,72.70
2018-07-14T19:13:14.200Z,73.60
2018-07-14T19:15:42.759Z,74.80
2018-07-14T19:18:11.167Z,76.20
2018-07-14T19:20:40.421Z,77.10
2018-07-14T19:23:08.957Z,78.20
2018-07-14T19:25:37.588Z,78.90
2018-07-14T19:28:06.084Z,79.50
2018-07-14T19:30:34.600Z,80.50
2018-07-14T19:33:03.243Z,81.90
2018-07-14T19:35:31.658Z,82.20
2018-07-14T19:38:00.307Z,83.50
2018-07-14T19:40:28.799Z,83.50
2018-07-14T19:42:57.336Z,83.70
2018-07-14T19:45:25.725Z,84.50
2018-07-14T19:47:54.240Z,85.40
2018-07-14T19:50:22.923Z,85.60
2018-07-14T19:52:51.411Z,86.10
2018-07-14T19:55:19.986Z,86.50
2018-07-14T19:57:48.476Z,86.80
2018-07-14T20:00:17.166Z,88.00
2018-07-14T20:02:45.719Z,88.00
2018-07-14T20:05:14.309Z,88.40
2018-07-14T20:07:42.906Z,88.00
2018-07-14T20:10:12.485Z,88.40
2018-07-14T20:12:40.968Z,88.80
2018-07-14T20:15:09.747Z,89.50
2018-07-14T20:17:38.622Z,90.00
2018-07-14T20:20:08.243Z,90.30
2018-07-14T20:22:36.687Z,90.30
2018-07-14T20:25:05.539Z,90.90
2018-07-14T20:27:34.015Z,90.50
2018-07-14T20:30:02.792Z,90.60
2018-07-14T20:32:31.266Z,90.80
2018-07-14T20:34:59.796Z,91.20
2018-07-14T20:37:28.153Z,91.10
2018-07-14T20:39:56.600Z,91.40
2018-07-14T20:42:25.510Z,91.80
2018-07-14T20:44:54.031Z,91.60
2018-07-14T20:47:22.580Z,91.90
2018-07-14T20:49:51.099Z,92.10
2018-07-14T20:52:19.613Z,92.00
2018-07-14T20:54:48.115Z,92.20
2018-07-14T20:57:16.672Z,92.30
2018-07-14T20:59:45.136Z,92.80
2018-07-14T21:02:13.887Z,92.60
2018-07-14T21:04:42.446Z,92.80
2018-07-14T21:07:11.116Z,92.90
2018-07-14T21:09:39.763Z,92.80
2018-07-14T21:12:08.244Z,93.10
2018-07-14T21:14:36.660Z,93.30
2018-07-14T21:17:05.376Z,93.50
2018-07-14T21:19:33.809Z,93.80
2018-07-14T21:22:02.282Z,94.00
2018-07-14T21:24:30.791Z,94.10
2018-07-14T21:26:59.302Z,94.20
2018-07-14T21:29:27.963Z,94.40
2018-07-14T21:31:56.704Z,94.60
2018-07-14T21:34:25.248Z,94.70
2018-07-14T21:36:53.903Z,94.70
2018-07-14T21:39:22.436Z,94.90
2018-07-14T21:41:51.339Z,94.90
2018-07-14T21:44:19.847Z,95.20
2018-07-14T21:46:48.300Z,95.20
2018-07-14T21:49:16.777Z,95.10
2018-07-14T21:51:45.265Z,95.10
2018-07-14T21:54:13.832Z,95.50
2018-07-14T21:56:42.416Z,95.60
2018-07-14T21:59:10.955Z,95.70
2018-07-14T22:01:44.771Z,95.60
2018-07-14T22:06:41.360Z,95.80
2018-07-14T22:09:09.843Z,96.20
2018-07-14T22:11:38.474Z,96.50
2018-07-14T22:14:07.023Z,96.90
2018-07-14T22:16:35.456Z,96.40
2018-07-14T22:19:03.976Z,96.30
2018-07-14T22:21:32.720Z,96.10
2018-07-14T22:24:01.349Z,96.20
2018-07-14T22:26:29.832Z,96.20
2018-07-14T22:28:58.400Z,96.90
2018-07-14T22:31:27.522Z,96.90
2018-07-14T22:33:55.987Z,96.90
2018-07-14T22:36:24.799Z,97.00
2018-07-14T22:38:53.579Z,96.90
2018-07-14T22:41:23.344Z,97.10
2018-07-14T22:43:51.777Z,97.10
2018-07-14T22:46:22.356Z,97.30
2018-07-14T22:48:50.772Z,97.40
2018-07-14T22:51:19.461Z,97.60
2018-07-14T22:53:47.845Z,97.80
2018-07-14T22:56:16.379Z,97.60
2018-07-14T22:58:44.831Z,97.40
2018-07-14T23:01:13.300Z,97.40
2018-07-14T23:03:41.844Z,97.90
2018-07-14T23:06:10.294Z,98.20
2018-07-14T23:08:38.932Z,98.20
2018-07-14T23:11:08.090Z,98.50
2018-07-14T23:13:36.619Z,98.50
2018-07-14T23:16:05.335Z,98.40
2018-07-14T23:18:33.766Z,98.30
2018-07-14T23:21:02.180Z,98.00
2018-07-14T23:23:30.674Z,98.20
2018-07-14T23:25:59.155Z,98.20
2018-07-14T23:28:27.719Z,98.40
2018-07-14T23:30:56.173Z,98.60
2018-07-14T23:33:24.664Z,98.60
2018-07-14T23:35:53.102Z,98.60
2018-07-14T23:38:21.598Z,98.90
2018-07-14T23:40:51.199Z,98.90
2018-07-14T23:43:19.633Z,98.80
2018-07-14T23:45:48.054Z,98.90
2018-07-14T23:48:16.464Z,99.20
2018-07-14T23:50:45.100Z,99.20
2018-07-14T23:53:13.556Z,99.10
2018-07-14T23:55:42.059Z,98.90
2018-07-14T23:58:10.530Z,98.90
